Time;durP1;ratioP1;P1;durP2;ratioP2;P2;SDS_P1;SDS_P2;PMS_P1;PMS_P2;Temp;Humidity;BMP_temperature;BMP_pressure;BME280_temperature;BME280_humidity;BME280_pressure;Samples;Min_cycle;Max_cycle;Signal;HPM_P1;HPM_P2
2021/12/02 00:00:22;;;;;;;10.77;1.55;;;6.30;77.20;;;;;;5028885;28;20400;-69
2021/12/02 00:02:47;;;;;;;9.80;2.08;;;6.20;77.10;;;;;;5027071;28;20049;-69
2021/12/02 00:05:13;;;;;;;6.20;1.60;;;6.20;77.40;;;;;;5029315;28;20049;-69
2021/12/02 00:07:39;;;;;;;10.73;1.60;;;6.20;77.40;;;;;;5018849;28;20041;-69
2021/12/02 00:10:05;;;;;;;7.03;1.60;;;6.20;77.50;;;;;;5028725;28;20037;-68
2021/12/02 00:12:31;;;;;;;9.15;1.58;;;6.20;77.60;;;;;;5028543;28;20065;-68
2021/12/02 00:15:00;;;;;;;7.20;1.38;;;6.10;77.40;;;;;;5027613;28;20061;-69
2021/12/02 00:17:28;;;;;;;7.43;1.50;;;6.10;77.80;;;;;;5029417;28;20033;-69
2021/12/02 00:23:08;;;;;;;11.10;2.22;;;6.10;78.10;;;;;;5027722;28;20500;-69
2021/12/02 00:25:34;;;;;;;12.45;2.22;;;6.10;78.30;;;;;;5028913;28;20059;-69
2021/12/02 00:28:01;;;;;;;8.77;1.40;;;6.10;78.20;;;;;;5033440;28;20484;-69
2021/12/02 00:30:26;;;;;;;5.55;1.40;;;6.10;78.40;;;;;;5032909;28;20432;-69
2021/12/02 00:32:55;;;;;;;9.98;1.90;;;6.10;78.40;;;;;;5032720;28;20041;-69
2021/12/02 00:35:21;;;;;;;7.50;1.48;;;6.10;78.60;;;;;;5034629;28;20124;-69
2021/12/02 00:37:47;;;;;;;8.50;1.30;;;6.10;78.70;;;;;;5032197;28;20445;-69
2021/12/02 00:40:13;;;;;;;9.10;1.65;;;6.10;78.80;;;;;;5027050;28;20381;-69
2021/12/02 00:42:40;;;;;;;9.15;1.80;;;6.10;78.90;;;;;;5021984;28;20044;-69
2021/12/02 00:45:06;;;;;;;11.25;1.92;;;6.10;79.00;;;;;;5032882;28;20104;-69
2021/12/02 00:47:33;;;;;;;4.85;1.77;;;6.10;79.20;;;;;;5032858;28;20384;-69
2021/12/02 00:49:59;;;;;;;9.90;2.05;;;6.10;79.60;;;;;;5032849;28;20018;-69
2021/12/02 00:52:27;;;;;;;9.18;1.75;;;6.20;79.70;;;;;;5031509;28;20041;-69
2021/12/02 00:54:54;;;;;;;13.20;2.30;;;6.20;79.70;;;;;;5031491;28;20079;-69
2021/12/02 00:57:21;;;;;;;8.65;1.90;;;6.10;79.70;;;;;;5028268;28;20043;-69
2021/12/02 00:59:49;;;;;;;9.50;1.80;;;6.10;79.80;;;;;;5032682;28;20033;-69
2021/12/02 01:02:16;;;;;;;5.22;1.20;;;6.10;80.10;;;;;;5031486;28;20050;-69
2021/12/02 01:04:42;;;;;;;9.60;1.58;;;6.00;80.20;;;;;;5031610;28;20021;-69
2021/12/02 01:07:08;;;;;;;11.07;1.80;;;6.00;80.40;;;;;;5031874;28;20571;-69
2021/12/02 01:09:35;;;;;;;8.25;1.30;;;5.90;81.00;;;;;;5012807;28;20030;-69
2021/12/02 01:12:01;;;;;;;8.02;1.27;;;5.90;80.60;;;;;;5016651;28;20040;-69
2021/12/02 01:14:28;;;;;;;7.88;1.58;;;5.90;80.80;;;;;;5023230;28;20041;-69
2021/12/02 01:16:54;;;;;;;8.73;1.48;;;5.90;81.00;;;;;;5030224;28;20116;-69
2021/12/02 01:19:20;;;;;;;8.80;1.40;;;5.90;81.10;;;;;;5018315;28;20037;-69
2021/12/02 01:21:48;;;;;;;8.40;1.33;;;5.90;81.00;;;;;;5031438;28;20107;-69
2021/12/02 01:24:15;;;;;;;8.23;1.45;;;5.90;81.30;;;;;;5032007;28;20025;-69
2021/12/02 01:26:54;;;;;;;8.23;1.40;;;5.90;81.40;;;;;;5031348;28;20064;-69
2021/12/02 01:29:22;;;;;;;5.55;1.25;;;5.90;81.50;;;;;;5032260;28;20098;-69
2021/12/02 01:32:04;;;;;;;5.85;1.58;;;5.90;81.30;;;;;;5010412;28;20492;-69
2021/12/02 01:34:31;;;;;;;8.73;1.17;;;5.90;81.40;;;;;;5020551;28;20804;-69
2021/12/02 01:36:58;;;;;;;7.07;1.38;;;5.90;81.30;;;;;;5031669;28;20034;-69
2021/12/02 01:39:24;;;;;;;5.40;1.25;;;5.80;81.20;;;;;;5035884;28;20036;-69
2021/12/02 01:41:55;;;;;;;6.30;1.60;;;5.90;81.40;;;;;;5033615;28;20505;-69
2021/12/02 01:44:22;;;;;;;7.80;1.60;;;5.80;81.40;;;;;;5031277;28;20412;-69
2021/12/02 01:46:51;;;;;;;8.30;1.95;;;5.80;81.50;;;;;;5029523;28;20035;-69
2021/12/02 01:49:19;;;;;;;7.53;1.48;;;5.80;81.70;;;;;;5030191;28;20023;-69
2021/12/02 01:51:54;;;;;;;2.80;1.10;;;5.80;81.70;;;;;;5030548;28;20381;-69
2021/12/02 01:54:23;;;;;;;6.15;1.70;;;5.80;81.70;;;;;;5031161;28;20048;-69
2021/12/02 01:57:07;;;;;;;5.30;1.25;;;5.80;81.80;;;;;;5029135;28;20025;-69
2021/12/02 01:59:38;;;;;;;4.30;1.30;;;5.80;81.90;;;;;;5031091;28;20029;-69
2021/12/02 02:02:10;;;;;;;2.80;1.30;;;5.80;81.90;;;;;;5028748;28;20071;-69
2021/12/02 02:04:37;;;;;;;6.50;1.50;;;5.80;82.10;;;;;;5029882;28;20038;-69
2021/12/02 02:07:10;;;;;;;4.47;1.40;;;5.70;82.20;;;;;;5027735;28;20026;-69
2021/12/02 02:09:37;;;;;;;9.80;1.63;;;5.80;82.30;;;;;;5031130;28;20021;-69
2021/12/02 02:12:06;;;;;;;6.88;1.88;;;5.80;82.40;;;;;;5029024;28;20384;-69
2021/12/02 02:14:32;;;;;;;7.30;1.60;;;5.80;82.60;;;;;;5030948;28;20507;-69
2021/12/02 02:17:01;;;;;;;5.03;1.40;;;5.80;82.60;;;;;;5029316;28;20733;-69
2021/12/02 02:19:30;;;;;;;6.22;1.30;;;5.80;82.70;;;;;;5030624;28;20040;-69
2021/12/02 02:22:12;;;;;;;4.80;1.30;;;5.70;82.70;;;;;;5029523;28;20033;-69
2021/12/02 02:24:41;;;;;;;7.82;1.70;;;5.70;82.80;;;;;;5031196;28;20025;-69
2021/12/02 02:27:07;;;;;;;5.53;1.42;;;5.60;82.90;;;;;;5029886;28;20073;-69
2021/12/02 02:29:33;;;;;;;8.23;2.22;;;5.50;82.80;;;;;;5031311;28;20476;-69
2021/12/02 02:31:59;;;;;;;7.00;1.83;;;5.60;83.40;;;;;;5030167;28;20392;-69
2021/12/02 02:34:25;;;;;;;5.75;1.75;;;5.50;83.10;;;;;;5030416;28;20049;-69
2021/12/02 02:36:55;;;;;;;5.13;1.60;;;5.50;83.20;;;;;;5030125;28;20033;-69
2021/12/02 02:39:21;;;;;;;5.18;1.30;;;5.50;83.10;;;;;;5028679;28;20479;-69
2021/12/02 02:41:55;;;;;;;3.55;1.05;;;5.50;83.10;;;;;;5028405;28;20044;-69
2021/12/02 02:44:22;;;;;;;4.25;1.02;;;5.50;83.20;;;;;;5034417;28;20037;-69
2021/12/02 02:46:48;;;;;;;5.20;1.25;;;5.40;83.30;;;;;;5033818;28;20033;-69
2021/12/02 02:49:14;;;;;;;5.05;1.20;;;5.40;83.40;;;;;;5029985;28;20338;-69
2021/12/02 02:51:42;;;;;;;6.47;1.30;;;5.40;83.50;;;;;;5029358;28;20033;-69
2021/12/02 02:54:10;;;;;;;4.60;1.02;;;5.40;83.50;;;;;;5030126;28;20086;-69
2021/12/02 02:56:43;;;;;;;5.15;1.20;;;5.40;83.50;;;;;;5028363;28;20025;-69
2021/12/02 03:01:46;;;;;;;3.88;1.10;;;5.40;83.70;;;;;;5028015;28;20038;-69
2021/12/02 03:04:27;;;;;;;6.30;1.67;;;5.30;83.70;;;;;;5015022;28;20594;-69
2021/12/02 03:17:36;;;;;;;5.25;0.90;;;5.30;84.20;;;;;;5016677;28;20472;-69
2021/12/02 03:20:03;;;;;;;4.63;1.00;;;5.30;84.10;;;;;;5029740;28;20132;-69
2021/12/02 03:22:32;;;;;;;2.10;0.65;;;5.30;84.20;;;;;;5028353;28;20079;-69
2021/12/02 03:24:58;;;;;;;6.90;1.15;;;5.30;84.30;;;;;;5028815;28;20112;-69
2021/12/02 03:27:24;;;;;;;7.72;2.08;;;5.30;84.30;;;;;;5029143;28;20112;-69
2021/12/02 03:29:50;;;;;;;4.47;0.80;;;5.30;84.40;;;;;;5025252;28;20022;-69
2021/12/02 03:32:16;;;;;;;2.15;0.80;;;5.30;84.40;;;;;;5028369;28;20041;-69
2021/12/02 03:34:41;;;;;;;3.92;0.70;;;5.30;84.40;;;;;;5029053;28;20029;-69
2021/12/02 03:37:08;;;;;;;5.03;1.13;;;5.30;84.30;;;;;;5014362;28;20029;-69
2021/12/02 03:39:34;;;;;;;5.20;1.30;;;5.30;84.20;;;;;;5029098;28;20040;-69
2021/12/02 03:42:00;;;;;;;1.45;0.60;;;5.30;84.10;;;;;;5028577;28;20412;-69
2021/12/02 03:44:26;;;;;;;2.80;0.70;;;5.20;84.10;;;;;;5029142;28;20021;-69
2021/12/02 03:46:53;;;;;;;6.05;1.13;;;5.20;84.10;;;;;;5028839;28;20040;-69
2021/12/02 03:49:20;;;;;;;3.30;0.75;;;5.20;84.00;;;;;;5029506;28;20025;-69
2021/12/02 03:51:46;;;;;;;1.73;0.60;;;5.20;84.10;;;;;;5041158;28;20032;-69
2021/12/02 03:54:11;;;;;;;1.40;0.40;;;5.20;84.10;;;;;;5015263;28;20044;-69
2021/12/02 03:56:37;;;;;;;1.55;0.47;;;5.20;84.00;;;;;;5029473;28;20034;-69
2021/12/02 03:59:04;;;;;;;2.75;0.60;;;5.20;83.80;;;;;;5030037;28;20033;-69
2021/12/02 04:01:30;;;;;;;5.13;0.70;;;5.20;83.80;;;;;;5010438;28;20041;-69
2021/12/02 04:03:55;;;;;;;2.10;0.68;;;5.10;83.80;;;;;;5026343;28;20100;-69
2021/12/02 04:06:21;;;;;;;4.03;0.60;;;5.20;83.80;;;;;;5027155;28;20057;-69
2021/12/02 04:08:57;;;;;;;2.53;0.70;;;5.10;83.70;;;;;;5029368;28;20036;-69
2021/12/02 04:16:38;;;;;;;3.50;0.75;;;5.10;83.60;;;;;;5027959;28;20133;-69
2021/12/02 04:19:05;;;;;;;2.45;0.43;;;5.10;83.60;;;;;;5029323;28;20018;-69
2021/12/02 04:21:32;;;;;;;4.07;0.60;;;5.10;83.60;;;;;;5027666;28;20026;-69
2021/12/02 04:23:58;;;;;;;4.55;0.73;;;5.10;83.60;;;;;;5028862;28;20052;-69
2021/12/02 04:26:24;;;;;;;1.13;0.40;;;5.10;83.70;;;;;;5028368;28;20025;-69
2021/12/02 04:28:50;;;;;;;1.48;0.50;;;5.10;83.70;;;;;;5029235;28;20033;-69
2021/12/02 04:31:16;;;;;;;2.17;0.35;;;5.10;83.50;;;;;;5028500;28;20037;-69
2021/12/02 04:33:43;;;;;;;4.20;0.70;;;5.10;83.60;;;;;;5029154;28;20487;-69
2021/12/02 04:36:08;;;;;;;1.48;0.50;;;5.10;83.70;;;;;;5018943;28;20076;-69
2021/12/02 04:38:34;;;;;;;1.95;0.30;;;5.10;83.60;;;;;;5017579;28;20503;-70
2021/12/02 04:41:00;;;;;;;2.60;0.60;;;5.00;83.70;;;;;;5028023;28;20068;-70
2021/12/02 04:43:26;;;;;;;1.27;0.40;;;5.00;83.70;;;;;;5028456;28;20422;-69
2021/12/02 04:45:53;;;;;;;1.75;0.43;;;5.00;83.90;;;;;;5028288;28;20040;-70
2021/12/02 04:48:19;;;;;;;1.73;0.50;;;4.90;84.00;;;;;;5027938;28;20063;-69
2021/12/02 04:50:46;;;;;;;2.13;0.55;;;5.00;84.00;;;;;;5028860;28;20037;-70
2021/12/02 04:53:12;;;;;;;3.88;0.95;;;5.00;84.00;;;;;;5025996;28;20468;-70
2021/12/02 04:55:38;;;;;;;2.30;0.50;;;5.00;84.00;;;;;;5026823;28;20068;-69
2021/12/02 04:58:04;;;;;;;3.47;0.40;;;5.00;83.90;;;;;;5030231;28;20048;-70
2021/12/02 05:00:30;;;;;;;3.65;0.50;;;5.10;83.90;;;;;;5025011;28;20038;-69
2021/12/02 05:02:56;;;;;;;0.88;0.40;;;5.00;83.90;;;;;;5028115;28;20128;-70
2021/12/02 05:05:23;;;;;;;4.13;0.95;;;5.00;83.80;;;;;;5027119;28;20117;-70
2021/12/02 05:07:52;;;;;;;1.60;0.35;;;5.00;83.70;;;;;;5008333;28;20049;-70
2021/12/02 05:10:18;;;;;;;2.40;0.50;;;5.00;83.80;;;;;;5012712;28;20037;-69
2021/12/02 05:12:44;;;;;;;4.15;0.85;;;5.00;83.80;;;;;;5022383;28;20034;-69
2021/12/02 05:15:10;;;;;;;1.60;0.50;;;5.00;83.80;;;;;;5016355;28;20029;-70
2021/12/02 05:17:35;;;;;;;2.53;0.63;;;5.00;83.80;;;;;;5030868;28;20105;-70
2021/12/02 05:20:02;;;;;;;2.45;0.52;;;5.00;83.80;;;;;;5030883;28;20025;-70
2021/12/02 05:22:28;;;;;;;2.33;0.80;;;4.90;83.90;;;;;;5029939;28;20566;-70
2021/12/02 05:24:54;;;;;;;2.55;0.77;;;4.90;84.00;;;;;;5031779;28;20025;-70
2021/12/02 05:27:19;;;;;;;1.60;0.70;;;5.00;84.00;;;;;;5030876;28;20033;-70
2021/12/02 05:29:45;;;;;;;5.07;0.85;;;4.90;84.00;;;;;;5023340;28;20124;-70
2021/12/02 05:32:11;;;;;;;2.53;0.75;;;4.90;84.20;;;;;;5031613;28;20056;-70
2021/12/02 05:34:36;;;;;;;3.83;0.73;;;4.90;84.30;;;;;;5031745;28;20033;-69
2021/12/02 05:37:02;;;;;;;1.70;0.60;;;4.90;84.40;;;;;;5026826;28;20167;-69
2021/12/02 05:39:28;;;;;;;3.40;0.70;;;4.80;84.30;;;;;;5031904;28;20025;-69
2021/12/02 05:41:54;;;;;;;4.03;0.65;;;4.70;84.50;;;;;;5030939;28;20135;-70
2021/12/02 05:44:23;;;;;;;4.32;0.70;;;4.70;84.50;;;;;;5030125;28;20480;-70
2021/12/02 05:46:53;;;;;;;2.92;0.63;;;4.70;84.70;;;;;;5027971;28;20361;-69
2021/12/02 05:49:22;;;;;;;0.82;0.47;;;4.70;84.60;;;;;;5030689;28;20053;-70
2021/12/02 05:51:48;;;;;;;2.67;0.60;;;4.70;84.50;;;;;;5030248;28;20087;-69
2021/12/02 05:54:16;;;;;;;1.20;0.50;;;4.70;84.50;;;;;;5031613;28;20029;-69
2021/12/02 05:56:42;;;;;;;2.08;0.60;;;4.70;84.50;;;;;;5031560;28;20059;-69
2021/12/02 05:59:08;;;;;;;3.03;0.55;;;4.70;84.50;;;;;;5030834;28;20306;-69
2021/12/02 06:01:34;;;;;;;1.83;0.50;;;4.70;84.50;;;;;;5041822;28;20040;-69
2021/12/02 06:04:03;;;;;;;1.40;0.50;;;4.70;84.50;;;;;;5002987;28;20155;-69
2021/12/02 06:06:28;;;;;;;1.77;0.60;;;4.70;84.50;;;;;;5027861;28;20060;-69
2021/12/02 06:08:54;;;;;;;1.48;0.40;;;4.70;84.50;;;;;;5030287;28;20033;-69
2021/12/02 06:11:20;;;;;;;1.58;0.35;;;4.70;84.50;;;;;;5030187;28;20075;-69
2021/12/02 06:13:48;;;;;;;2.50;0.63;;;4.70;84.60;;;;;;5031453;28;20496;-70
2021/12/02 06:16:15;;;;;;;2.97;0.60;;;4.60;84.40;;;;;;5031037;28;20033;-69
2021/12/02 06:18:41;;;;;;;2.13;0.63;;;4.70;84.40;;;;;;5031243;28;20025;-70
2021/12/02 06:21:06;;;;;;;2.78;0.70;;;4.70;84.40;;;;;;5029793;28;20037;-70
2021/12/02 06:23:32;;;;;;;2.50;0.70;;;4.60;84.40;;;;;;5030970;28;20040;-69
2021/12/02 06:25:58;;;;;;;1.27;0.40;;;4.60;84.40;;;;;;5029989;28;20472;-69
2021/12/02 06:28:24;;;;;;;1.45;0.70;;;4.60;84.30;;;;;;5029988;28;20588;-70
2021/12/02 06:30:49;;;;;;;2.53;0.68;;;4.60;84.30;;;;;;5030438;28;20388;-69
2021/12/02 06:33:15;;;;;;;2.05;0.57;;;4.60;84.30;;;;;;5031109;28;20120;-69
2021/12/02 06:35:41;;;;;;;2.03;0.70;;;4.60;84.40;;;;;;5030611;28;20032;-69
2021/12/02 06:38:08;;;;;;;3.40;0.70;;;4.60;84.50;;;;;;5024642;28;20483;-70
2021/12/02 06:40:34;;;;;;;1.83;0.80;;;4.60;84.50;;;;;;5030124;28;20041;-70
2021/12/02 06:43:02;;;;;;;1.83;0.80;;;4.60;85.00;;;;;;5026863;28;20037;-70
2021/12/02 06:45:28;;;;;;;2.42;0.80;;;4.60;84.50;;;;;;5029558;28;20465;-70
2021/12/02 06:47:58;;;;;;;4.13;1.00;;;4.60;84.60;;;;;;5029563;28;20033;-70
2021/12/02 06:50:24;;;;;;;4.85;1.52;;;4.60;84.60;;;;;;5030758;28;20028;-70
2021/12/02 06:52:51;;;;;;;1.92;0.90;;;4.60;84.60;;;;;;5028885;28;20029;-70
2021/12/02 06:55:17;;;;;;;2.97;1.10;;;4.60;84.70;;;;;;5028632;28;20030;-70
2021/12/02 06:57:43;;;;;;;5.50;1.20;;;4.50;84.80;;;;;;5030678;28;20030;-70
2021/12/02 07:00:12;;;;;;;3.42;1.20;;;4.50;84.90;;;;;;5029483;28;20038;-70
2021/12/02 07:02:38;;;;;;;2.90;1.10;;;4.50;85.10;;;;;;5029299;28;20498;-69
2021/12/02 07:05:06;;;;;;;1.55;1.10;;;4.50;85.20;;;;;;5033932;28;20020;-70
2021/12/02 07:07:36;;;;;;;2.80;1.20;;;4.50;85.20;;;;;;5039074;28;20024;-69
2021/12/02 07:10:05;;;;;;;5.47;1.70;;;4.40;85.10;;;;;;5026982;28;20076;-69
2021/12/02 07:12:33;;;;;;;4.10;1.45;;;4.40;85.00;;;;;;5025768;28;20029;-70
2021/12/02 07:15:06;;;;;;;2.83;1.50;;;4.40;85.10;;;;;;5029938;28;20093;-69
2021/12/02 07:17:32;;;;;;;3.80;1.60;;;4.40;85.00;;;;;;5030191;28;20033;-69
2021/12/02 07:19:59;;;;;;;3.22;1.50;;;4.40;85.10;;;;;;5029168;28;20033;-69
2021/12/02 07:22:28;;;;;;;3.60;1.60;;;4.40;85.10;;;;;;5028569;28;20052;-70
2021/12/02 07:24:55;;;;;;;1.63;1.40;;;4.40;85.00;;;;;;5029611;28;20017;-69
2021/12/02 07:27:21;;;;;;;2.40;1.50;;;4.40;84.90;;;;;;5030161;28;20038;-70
2021/12/02 07:29:47;;;;;;;4.82;1.60;;;4.40;84.80;;;;;;5026243;28;20018;-70
2021/12/02 07:32:12;;;;;;;2.45;1.60;;;4.40;84.80;;;;;;5028972;28;20076;-70
2021/12/02 07:34:45;;;;;;;2.78;1.85;;;4.40;84.80;;;;;;5029539;28;20041;-70
2021/12/02 07:37:13;;;;;;;;;;;4.30;84.90;;;;;;5030511;28;20477;-70
2021/12/02 07:39:39;;;;;;;5.30;1.85;;;4.30;84.80;;;;;;5030102;28;19920;-70
2021/12/02 07:42:05;;;;;;;2.88;2.10;;;4.30;84.90;;;;;;5029303;28;20042;-70
2021/12/02 07:44:34;;;;;;;6.75;2.70;;;4.30;84.90;;;;;;5029764;28;20038;-70
2021/12/02 07:47:01;;;;;;;5.85;2.10;;;4.30;85.00;;;;;;5030177;28;20118;-67
2021/12/02 07:49:28;;;;;;;5.55;2.30;;;4.20;85.10;;;;;;5029453;28;20037;-69
2021/12/02 07:51:58;;;;;;;3.33;2.05;;;4.30;85.20;;;;;;5028574;28;20437;-68
2021/12/02 07:54:24;;;;;;;4.13;2.00;;;4.30;85.30;;;;;;5028423;28;20029;-68
2021/12/02 07:56:49;;;;;;;2.55;1.75;;;4.30;85.30;;;;;;5027859;28;20063;-69
2021/12/02 07:59:19;;;;;;;6.32;2.30;;;4.40;85.20;;;;;;5028477;28;20646;-67
2021/12/02 08:01:46;;;;;;;4.13;1.92;;;4.40;85.10;;;;;;5030483;28;20044;-65
2021/12/02 08:04:12;;;;;;;3.63;2.08;;;4.50;85.10;;;;;;5027633;28;20116;-66
2021/12/02 08:06:38;;;;;;;2.53;1.50;;;4.50;84.90;;;;;;5028233;28;20113;-67
2021/12/02 08:09:05;;;;;;;3.97;1.80;;;4.50;84.90;;;;;;5029195;28;20053;-73
2021/12/02 08:11:32;;;;;;;5.07;2.20;;;4.50;84.90;;;;;;5033032;28;20030;-72
2021/12/02 08:13:58;;;;;;;4.03;1.80;;;4.50;85.00;;;;;;5039826;28;20040;-68
2021/12/02 08:16:24;;;;;;;3.65;1.60;;;4.40;85.00;;;;;;5033172;28;20037;-67
2021/12/02 08:18:49;;;;;;;4.45;1.65;;;4.40;85.00;;;;;;5037562;28;20530;-69
2021/12/02 08:21:15;;;;;;;2.10;1.30;;;4.50;85.10;;;;;;5030650;28;20442;-68
2021/12/02 08:23:41;;;;;;;2.17;0.90;;;4.50;85.20;;;;;;5041946;28;20029;-67
2021/12/02 08:26:07;;;;;;;4.43;1.35;;;4.50;85.20;;;;;;5026536;28;20463;-68
2021/12/02 08:28:33;;;;;;;5.03;1.25;;;4.50;85.30;;;;;;5041644;28;20037;-68
2021/12/02 08:30:59;;;;;;;3.80;1.63;;;4.60;85.30;;;;;;5024210;28;20034;-68
2021/12/02 08:33:25;;;;;;;4.72;1.20;;;4.60;85.20;;;;;;5028676;28;20044;-68
2021/12/02 08:35:51;;;;;;;4.03;1.10;;;4.50;85.20;;;;;;5024227;28;20010;-68
2021/12/02 08:38:19;;;;;;;2.40;1.10;;;4.60;85.50;;;;;;5026940;28;20080;-68
2021/12/02 08:40:48;;;;;;;4.22;1.00;;;4.60;85.60;;;;;;5028621;28;20406;-68
2021/12/02 08:43:15;;;;;;;7.00;1.42;;;4.60;85.70;;;;;;5028181;28;20507;-68
2021/12/02 08:45:43;;;;;;;4.25;1.20;;;4.60;85.70;;;;;;5030588;28;20477;-68
2021/12/02 08:48:10;;;;;;;6.32;1.60;;;4.60;85.40;;;;;;5033436;28;20113;-68
2021/12/02 08:50:37;;;;;;;3.70;1.50;;;4.70;85.20;;;;;;5031545;28;20041;-69
2021/12/02 08:53:04;;;;;;;5.78;1.70;;;4.60;85.00;;;;;;5029602;28;20026;-70
2021/12/02 08:55:31;;;;;;;6.85;1.83;;;4.60;85.00;;;;;;5032522;28;20392;-71
2021/12/02 08:57:57;;;;;;;6.38;1.92;;;4.60;85.10;;;;;;5032869;28;20039;-69
2021/12/02 09:00:32;;;;;;;5.10;1.60;;;4.60;85.10;;;;;;5011562;28;20499;-69
2021/12/02 09:02:58;;;;;;;2.90;1.58;;;4.60;85.20;;;;;;5013017;28;20053;-70
2021/12/02 09:05:24;;;;;;;4.07;1.73;;;4.60;85.10;;;;;;5027189;28;20030;-70
2021/12/02 09:07:49;;;;;;;6.13;1.90;;;4.60;85.20;;;;;;5028301;28;20030;-70
2021/12/02 09:10:16;;;;;;;6.95;1.77;;;4.70;85.20;;;;;;5038589;28;20042;-70
2021/12/02 09:12:42;;;;;;;7.18;2.13;;;4.80;85.20;;;;;;5021758;28;20034;-70
2021/12/02 09:15:08;;;;;;;8.10;2.00;;;4.80;85.00;;;;;;5032505;28;20390;-70
2021/12/02 09:17:35;;;;;;;6.20;1.80;;;4.80;85.00;;;;;;5030196;28;20030;-69
2021/12/02 09:20:02;;;;;;;4.45;3.05;;;4.80;85.00;;;;;;5031901;28;20120;-70
2021/12/02 09:22:28;;;;;;;7.22;3.08;;;4.80;85.00;;;;;;5030048;28;20103;-71
2021/12/02 09:24:54;;;;;;;3.22;1.80;;;4.80;85.20;;;;;;5018462;28;20037;-71
2021/12/02 09:27:19;;;;;;;4.25;2.38;;;4.80;85.40;;;;;;5025209;28;20553;-71
2021/12/02 09:29:45;;;;;;;4.20;1.70;;;4.80;85.30;;;;;;5025416;28;20037;-71
2021/12/02 09:32:11;;;;;;;5.20;2.08;;;4.90;85.30;;;;;;5029666;28;20048;-71
2021/12/02 09:34:37;;;;;;;5.57;2.22;;;4.90;85.20;;;;;;5036403;28;20048;-71
2021/12/02 09:37:04;;;;;;;5.18;2.05;;;4.90;85.20;;;;;;5035834;28;20381;-71
2021/12/02 09:39:31;;;;;;;4.00;1.95;;;4.90;85.30;;;;;;5028944;28;20033;-71
2021/12/02 09:41:57;;;;;;;2.20;1.60;;;5.00;85.50;;;;;;5022729;28;20040;-71
2021/12/02 09:44:23;;;;;;;4.75;1.95;;;5.00;85.60;;;;;;5032512;28;20029;-71
2021/12/02 09:46:50;;;;;;;3.78;1.50;;;5.10;85.60;;;;;;5040769;28;20033;-71
2021/12/02 09:49:16;;;;;;;2.88;1.70;;;5.20;85.40;;;;;;5033331;28;20117;-71
2021/12/02 09:52:17;;;;;;;3.75;1.60;;;5.20;85.30;;;;;;5030439;28;20056;-71
2021/12/02 09:57:05;;;;;;;3.10;1.52;;;5.20;85.00;;;;;;5026238;28;20060;-71
2021/12/02 09:59:46;;;;;;;2.72;1.40;;;5.30;85.00;;;;;;5027304;28;20041;-71
2021/12/02 10:02:15;;;;;;;2.70;1.00;;;5.20;84.80;;;;;;5026336;28;20128;-71
2021/12/02 10:04:48;;;;;;;2.40;1.08;;;5.20;84.90;;;;;;5020978;28;20149;-71
2021/12/02 10:07:36;;;;;;;2.95;1.20;;;5.20;84.80;;;;;;5025113;28;20021;-70
2021/12/02 10:12:47;;;;;;;3.45;1.27;;;5.20;84.90;;;;;;5023356;28;20151;-73
2021/12/02 10:15:15;;;;;;;3.38;1.23;;;5.20;85.00;;;;;;5026893;28;20060;-73
2021/12/02 10:22:45;;;;;;;1.60;0.82;;;5.40;84.40;;;;;;5028491;28;20044;-73
2021/12/02 10:25:11;;;;;;;1.13;0.90;;;5.30;84.40;;;;;;5027776;28;20107;-73
2021/12/02 10:27:56;;;;;;;0.80;0.70;;;5.30;84.60;;;;;;5031635;28;20087;-73
2021/12/02 10:30:24;;;;;;;2.50;0.85;;;5.20;84.60;;;;;;5025737;28;20025;-73
2021/12/02 10:32:51;;;;;;;2.72;1.00;;;5.20;84.60;;;;;;5025584;28;20614;-73
2021/12/02 10:35:20;;;;;;;4.78;1.00;;;5.10;84.70;;;;;;5025767;28;20025;-73
2021/12/02 10:37:46;;;;;;;1.52;1.20;;;5.10;84.60;;;;;;5029251;28;20072;-73
2021/12/02 10:40:15;;;;;;;1.30;0.80;;;5.20;84.90;;;;;;5027944;28;20151;-73
2021/12/02 10:42:43;;;;;;;1.95;0.73;;;5.50;84.90;;;;;;5026929;28;20557;-71
2021/12/02 10:45:24;;;;;;;4.82;1.00;;;5.90;83.90;;;;;;5025384;28;20570;-71
2021/12/02 10:47:52;;;;;;;3.90;1.08;;;6.40;83.50;;;;;;5039767;28;20086;-71
2021/12/02 10:50:19;;;;;;;2.25;0.85;;;7.20;81.50;;;;;;5026699;28;20037;-71
2021/12/02 10:52:45;;;;;;;1.13;0.80;;;7.70;79.70;;;;;;5028097;28;20041;-71
2021/12/02 10:55:13;;;;;;;4.13;1.13;;;7.90;78.30;;;;;;5029279;28;20526;-71
2021/12/02 10:57:54;;;;;;;2.83;0.90;;;8.30;77.30;;;;;;5027996;28;20029;-71
2021/12/02 11:00:23;;;;;;;1.23;0.65;;;8.90;74.80;;;;;;5028982;28;20037;-71
2021/12/02 11:02:54;;;;;;;1.58;0.60;;;9.70;73.40;;;;;;5029090;28;20361;-71
2021/12/02 11:05:32;;;;;;;2.63;0.83;;;10.50;71.50;;;;;;5029010;28;20021;-71
2021/12/02 11:08:11;;;;;;;1.05;0.77;;;11.10;69.60;;;;;;5028566;28;20465;-72
2021/12/02 11:10:46;;;;;;;1.88;0.88;;;12.10;67.40;;;;;;5037788;28;20029;-73
2021/12/02 11:13:19;;;;;;;1.25;0.60;;;12.50;66.10;;;;;;5044218;28;20112;-73
2021/12/02 11:15:45;;;;;;;2.42;0.90;;;12.70;64.30;;;;;;5029750;28;20029;-73
2021/12/02 11:18:13;;;;;;;2.15;0.90;;;12.90;63.40;;;;;;5023045;28;20752;-73
2021/12/02 11:20:41;;;;;;;1.83;0.80;;;12.40;62.30;;;;;;5031986;28;20063;-73
2021/12/02 11:23:19;;;;;;;1.67;0.73;;;11.60;63.70;;;;;;5027704;28;20747;-73
2021/12/02 11:25:58;;;;;;;2.15;0.70;;;10.80;64.90;;;;;;5030746;28;20074;-73
2021/12/02 11:28:29;;;;;;;1.25;0.52;;;10.10;67.20;;;;;;5015249;28;20529;-73
2021/12/02 11:30:56;;;;;;;1.80;0.70;;;9.60;67.90;;;;;;5026668;28;20030;-73
2021/12/02 11:33:32;;;;;;;2.50;0.60;;;9.10;69.00;;;;;;5027538;28;20025;-73
2021/12/02 11:35:58;;;;;;;1.10;0.50;;;8.70;70.40;;;;;;5027840;28;20034;-73
2021/12/02 11:38:26;;;;;;;1.65;0.50;;;8.30;71.20;;;;;;5028993;28;20087;-73
2021/12/02 11:40:56;;;;;;;2.20;0.60;;;8.00;72.30;;;;;;5026814;28;20031;-73
2021/12/02 11:43:25;;;;;;;1.75;0.50;;;7.80;73.20;;;;;;5026497;28;20488;-73
2021/12/02 11:45:52;;;;;;;1.13;0.50;;;7.60;74.00;;;;;;5028761;28;20076;-73
2021/12/02 11:48:38;;;;;;;2.00;0.60;;;7.40;75.10;;;;;;5029002;28;20622;-73
2021/12/02 11:51:06;;;;;;;2.25;0.60;;;7.20;75.50;;;;;;5027776;28;20112;-70
2021/12/02 11:53:32;;;;;;;1.73;0.50;;;7.10;76.30;;;;;;5033355;28;20029;-70
2021/12/02 11:56:11;;;;;;;1.17;0.60;;;7.00;76.70;;;;;;5027759;28;20037;-70
2021/12/02 11:58:37;;;;;;;1.33;0.60;;;7.00;77.00;;;;;;5026869;28;20064;-71
2021/12/02 12:01:04;;;;;;;0.88;0.50;;;6.90;77.00;;;;;;5043865;28;20065;-70
2021/12/02 12:03:36;;;;;;;1.50;0.50;;;7.30;77.60;;;;;;5028270;28;20132;-71
2021/12/02 12:06:08;;;;;;;1.40;0.60;;;7.80;76.10;;;;;;5031987;28;20087;-71
2021/12/02 12:08:36;;;;;;;1.60;0.50;;;8.20;75.10;;;;;;5027760;28;20021;-74
2021/12/02 12:11:24;;;;;;;0.60;0.60;;;8.60;74.20;;;;;;5025268;28;20424;-74
2021/12/02 12:14:04;;;;;;;1.23;0.40;;;9.50;72.20;;;;;;5028520;28;20037;-73
2021/12/02 12:16:34;;;;;;;0.77;0.40;;;10.90;68.30;;;;;;5027813;28;20559;-74
2021/12/02 12:19:41;;;;;;;2.85;0.40;;;11.40;65.00;;;;;;5030628;28;20028;-73
2021/12/02 12:22:24;;;;;;;0.73;0.50;;;11.00;64.70;;;;;;5009206;28;20392;-73
2021/12/02 12:24:55;;;;;;;0.70;0.32;;;10.30;65.30;;;;;;4993659;28;20026;-71
2021/12/02 12:27:32;;;;;;;1.75;0.50;;;9.70;67.00;;;;;;5024240;28;20481;-71
2021/12/02 12:30:01;;;;;;;1.27;0.35;;;9.50;68.30;;;;;;5031820;28;20411;-71
2021/12/02 12:33:06;;;;;;;1.02;0.38;;;9.40;68.90;;;;;;5031016;28;20096;-73
2021/12/02 12:38:29;;;;;;;0.77;0.40;;;10.00;66.90;;;;;;5031794;28;20057;-74
2021/12/02 12:41:22;;;;;;;0.65;0.35;;;9.80;66.80;;;;;;5031518;28;20037;-71
2021/12/02 12:43:53;;;;;;;0.57;0.40;;;9.30;67.30;;;;;;5036433;28;20087;-70
2021/12/02 12:46:30;;;;;;;1.13;0.32;;;8.80;68.20;;;;;;5033443;28;20473;-70
2021/12/02 12:49:13;;;;;;;0.40;0.40;;;8.40;69.10;;;;;;5031811;28;20083;-71
2021/12/02 12:51:49;;;;;;;1.73;0.52;;;8.10;70.00;;;;;;5032422;28;20075;-71
2021/12/02 12:54:22;;;;;;;1.10;0.40;;;8.00;71.30;;;;;;5043333;28;20107;-71
2021/12/02 12:57:01;;;;;;;1.08;0.47;;;8.00;71.10;;;;;;5036302;28;20068;-71
2021/12/02 12:59:26;;;;;;;1.33;0.45;;;8.20;71.30;;;;;;5035315;28;20048;-70
2021/12/02 13:01:59;;;;;;;1.73;0.55;;;8.40;70.80;;;;;;5034836;28;20079;-72
2021/12/02 13:04:27;;;;;;;0.75;0.50;;;8.50;70.60;;;;;;5025691;28;20071;-73
2021/12/02 13:07:22;;;;;;;1.20;0.50;;;9.20;70.90;;;;;;5040362;28;21443;-73
2021/12/02 13:10:11;;;;;;;0.50;0.40;;;10.20;68.20;;;;;;5026576;28;20088;-73
2021/12/02 13:12:36;;;;;;;0.95;0.50;;;10.70;65.60;;;;;;5036763;28;20025;-73
2021/12/02 13:15:04;;;;;;;3.42;0.70;;;10.90;65.40;;;;;;5031366;28;20382;-73
2021/12/02 13:17:39;;;;;;;1.60;0.50;;;11.50;63.70;;;;;;5029037;28;20029;-73
2021/12/02 13:20:42;;;;;;;1.13;0.50;;;11.80;62.40;;;;;;5021646;28;20385;-73
2021/12/02 13:23:16;;;;;;;0.73;0.63;;;11.90;61.40;;;;;;5018212;28;20042;-73
2021/12/02 13:25:50;;;;;;;0.90;0.50;;;11.70;61.90;;;;;;5020666;28;20030;-73
2021/12/02 13:28:21;;;;;;;0.90;0.52;;;12.10;61.20;;;;;;5035831;28;20381;-73
2021/12/02 13:30:54;;;;;;;1.15;0.80;;;12.50;58.70;;;;;;5037209;28;20017;-73
2021/12/02 13:33:50;;;;;;;1.60;0.65;;;12.60;59.10;;;;;;5023864;28;20094;-73
2021/12/02 13:36:19;;;;;;;1.50;0.70;;;12.80;58.70;;;;;;5029056;28;20037;-73
2021/12/02 13:39:25;;;;;;;1.90;0.80;;;13.10;58.10;;;;;;5032574;28;20348;-73